sensor_id;sensor_type;location;lat;lon;timestamp;temperature;humidity
758;DHT22;363;48.764;9.172;2024-03-07T00:00:36;8.70;99.90
758;DHT22;363;48.764;9.172;2024-03-07T00:03:01;8.70;99.90
758;DHT22;363;48.764;9.172;2024-03-07T00:05:27;8.80;99.90
758;DHT22;363;48.764;9.172;2024-03-07T00:07:53;8.60;99.90
758;DHT22;363;48.764;9.172;2024-03-07T00:10:20;8.60;99.90
758;DHT22;363;48.764;9.172;2024-03-07T00:12:48;8.70;99.90
758;DHT22;363;48.764;9.172;2024-03-07T00:15:14;8.30;99.90
758;DHT22;363;48.764;9.172;2024-03-07T00:17:40;8.30;99.90
758;DHT22;363;48.764;9.172;2024-03-07T00:20:07;8.50;99.90
758;DHT22;363;48.764;9.172;2024-03-07T00:22:37;8.10;99.90
758;DHT22;363;48.764;9.172;2024-03-07T00:25:04;8.20;99.90
758;DHT22;363;48.764;9.172;2024-03-07T00:27:34;8.30;99.90
758;DHT22;363;48.764;9.172;2024-03-07T00:30:01;8.60;99.90
758;DHT22;363;48.764;9.172;2024-03-07T00:32:27;8.60;99.90
758;DHT22;363;48.764;9.172;2024-03-07T00:34:55;8.60;99.90
758;DHT22;363;48.764;9.172;2024-03-07T00:37:22;8.50;99.90
758;DHT22;363;48.764;9.172;2024-03-07T00:39:49;8.10;99.90
758;DHT22;363;48.764;9.172;2024-03-07T00:42:14;8.10;99.90
758;DHT22;363;48.764;9.172;2024-03-07T00:44:40;8.40;99.90
758;DHT22;363;48.764;9.172;2024-03-07T00:47:06;8.00;99.90
758;DHT22;363;48.764;9.172;2024-03-07T00:49:31;8.10;99.90
758;DHT22;363;48.764;9.172;2024-03-07T00:52:00;8.40;99.90
758;DHT22;363;48.764;9.172;2024-03-07T00:54:26;8.20;99.90
758;DHT22;363;48.764;9.172;2024-03-07T00:56:51;8.20;99.90
758;DHT22;363;48.764;9.172;2024-03-07T00:59:17;8.10;99.90
758;DHT22;363;48.764;9.172;2024-03-07T01:01:43;8.00;99.90
758;DHT22;363;48.764;9.172;2024-03-07T01:04:09;8.40;99.90
758;DHT22;363;48.764;9.172;2024-03-07T01:06:35;8.50;99.90
758;DHT22;363;48.764;9.172;2024-03-07T01:09:01;8.40;99.90
758;DHT22;363;48.764;9.172;2024-03-07T01:11:28;8.40;99.90
758;DHT22;363;48.764;9.172;2024-03-07T01:13:53;7.90;99.90
758;DHT22;363;48.764;9.172;2024-03-07T01:16:19;7.90;99.90
758;DHT22;363;48.764;9.172;2024-03-07T01:18:44;8.00;99.90
758;DHT22;363;48.764;9.172;2024-03-07T01:21:10;8.40;99.90
758;DHT22;363;48.764;9.172;2024-03-07T01:23:36;8.20;99.90
758;DHT22;363;48.764;9.172;2024-03-07T01:26:02;8.30;99.90
758;DHT22;363;48.764;9.172;2024-03-07T01:28:29;8.00;99.90
758;DHT22;363;48.764;9.172;2024-03-07T01:30:55;8.10;99.90
758;DHT22;363;48.764;9.172;2024-03-07T01:33:21;8.30;99.90
758;DHT22;363;48.764;9.172;2024-03-07T01:35:47;8.30;99.90
758;DHT22;363;48.764;9.172;2024-03-07T01:38:13;7.90;99.90
758;DHT22;363;48.764;9.172;2024-03-07T01:40:40;8.10;99.90
758;DHT22;363;48.764;9.172;2024-03-07T01:43:07;7.90;99.90
758;DHT22;363;48.764;9.172;2024-03-07T01:45:33;7.60;99.90
758;DHT22;363;48.764;9.172;2024-03-07T01:47:59;8.30;99.90
758;DHT22;363;48.764;9.172;2024-03-07T01:50:25;7.80;99.90
758;DHT22;363;48.764;9.172;2024-03-07T01:52:50;7.70;99.90
758;DHT22;363;48.764;9.172;2024-03-07T01:55:17;7.60;99.90
758;DHT22;363;48.764;9.172;2024-03-07T01:57:43;7.20;99.90
758;DHT22;363;48.764;9.172;2024-03-07T02:00:09;7.40;99.90
758;DHT22;363;48.764;9.172;2024-03-07T02:02:35;7.70;99.90
758;DHT22;363;48.764;9.172;2024-03-07T02:05:01;7.50;99.90
758;DHT22;363;48.764;9.172;2024-03-07T02:07:27;7.20;99.90
758;DHT22;363;48.764;9.172;2024-03-07T02:10:03;7.60;99.90
758;DHT22;363;48.764;9.172;2024-03-07T02:12:29;7.30;99.90
758;DHT22;363;48.764;9.172;2024-03-07T02:14:57;7.50;99.90
758;DHT22;363;48.764;9.172;2024-03-07T02:17:26;7.70;99.90
758;DHT22;363;48.764;9.172;2024-03-07T02:19:52;7.30;99.90
758;DHT22;363;48.764;9.172;2024-03-07T02:22:18;7.40;99.90
758;DHT22;363;48.764;9.172;2024-03-07T02:24:44;6.90;99.90
758;DHT22;363;48.764;9.172;2024-03-07T02:27:11;6.90;99.90
758;DHT22;363;48.764;9.172;2024-03-07T02:29:37;6.90;99.90
758;DHT22;363;48.764;9.172;2024-03-07T02:32:03;6.90;99.90
758;DHT22;363;48.764;9.172;2024-03-07T02:34:29;6.70;99.90
758;DHT22;363;48.764;9.172;2024-03-07T02:36:56;7.20;99.90
758;DHT22;363;48.764;9.172;2024-03-07T02:39:22;6.70;99.90
758;DHT22;363;48.764;9.172;2024-03-07T02:41:49;7.00;99.90
758;DHT22;363;48.764;9.172;2024-03-07T02:44:15;7.10;99.90
758;DHT22;363;48.764;9.172;2024-03-07T02:46:40;6.50;99.90
758;DHT22;363;48.764;9.172;2024-03-07T02:49:06;6.70;99.90
758;DHT22;363;48.764;9.172;2024-03-07T02:51:32;6.70;99.90
758;DHT22;363;48.764;9.172;2024-03-07T02:53:57;6.10;99.90
758;DHT22;363;48.764;9.172;2024-03-07T02:56:24;6.30;99.90
758;DHT22;363;48.764;9.172;2024-03-07T02:58:50;6.60;99.90
758;DHT22;363;48.764;9.172;2024-03-07T03:01:16;6.30;99.90
758;DHT22;363;48.764;9.172;2024-03-07T03:03:42;6.10;99.90
758;DHT22;363;48.764;9.172;2024-03-07T03:06:08;6.10;99.90
758;DHT22;363;48.764;9.172;2024-03-07T03:08:34;6.40;99.90
758;DHT22;363;48.764;9.172;2024-03-07T03:11:00;5.80;99.90
758;DHT22;363;48.764;9.172;2024-03-07T03:13:26;6.00;99.90
758;DHT22;363;48.764;9.172;2024-03-07T03:15:56;6.00;99.90
758;DHT22;363;48.764;9.172;2024-03-07T03:18:25;5.60;99.90
758;DHT22;363;48.764;9.172;2024-03-07T03:20:51;5.70;99.90
758;DHT22;363;48.764;9.172;2024-03-07T03:23:18;5.90;99.90
758;DHT22;363;48.764;9.172;2024-03-07T03:25:44;5.70;99.90
758;DHT22;363;48.764;9.172;2024-03-07T03:28:10;5.70;99.90
758;DHT22;363;48.764;9.172;2024-03-07T03:30:40;5.90;99.90
758;DHT22;363;48.764;9.172;2024-03-07T03:33:07;6.70;99.90
758;DHT22;363;48.764;9.172;2024-03-07T03:35:34;5.50;99.90
758;DHT22;363;48.764;9.172;2024-03-07T03:38:00;5.90;99.90
758;DHT22;363;48.764;9.172;2024-03-07T03:40:25;5.50;99.90
758;DHT22;363;48.764;9.172;2024-03-07T03:42:51;5.40;99.90
758;DHT22;363;48.764;9.172;2024-03-07T03:45:17;5.30;99.90
758;DHT22;363;48.764;9.172;2024-03-07T03:47:43;5.70;99.90
758;DHT22;363;48.764;9.172;2024-03-07T03:50:10;5.60;99.90
758;DHT22;363;48.764;9.172;2024-03-07T03:52:39;5.50;99.90
758;DHT22;363;48.764;9.172;2024-03-07T03:55:06;5.20;99.90
758;DHT22;363;48.764;9.172;2024-03-07T03:57:33;5.30;99.90
758;DHT22;363;48.764;9.172;2024-03-07T03:59:59;5.00;99.90
758;DHT22;363;48.764;9.172;2024-03-07T04:02:25;5.60;99.90
758;DHT22;363;48.764;9.172;2024-03-07T04:04:51;5.40;99.90
758;DHT22;363;48.764;9.172;2024-03-07T04:07:18;4.90;99.90
758;DHT22;363;48.764;9.172;2024-03-07T04:09:47;4.90;99.90
758;DHT22;363;48.764;9.172;2024-03-07T04:12:13;5.30;99.90
758;DHT22;363;48.764;9.172;2024-03-07T04:14:40;6.50;99.90
758;DHT22;363;48.764;9.172;2024-03-07T04:17:06;5.10;99.90
758;DHT22;363;48.764;9.172;2024-03-07T04:19:34;4.90;99.90
758;DHT22;363;48.764;9.172;2024-03-07T04:22:00;5.40;99.90
758;DHT22;363;48.764;9.172;2024-03-07T04:24:26;5.40;99.90
758;DHT22;363;48.764;9.172;2024-03-07T04:26:51;5.20;99.90
758;DHT22;363;48.764;9.172;2024-03-07T04:29:19;4.90;99.90
758;DHT22;363;48.764;9.172;2024-03-07T04:31:44;5.10;99.90
758;DHT22;363;48.764;9.172;2024-03-07T04:34:10;5.00;99.90
758;DHT22;363;48.764;9.172;2024-03-07T04:36:35;5.00;99.90
758;DHT22;363;48.764;9.172;2024-03-07T04:39:01;4.90;99.90
758;DHT22;363;48.764;9.172;2024-03-07T04:41:30;4.90;99.90
758;DHT22;363;48.764;9.172;2024-03-07T04:43:55;4.80;99.90
758;DHT22;363;48.764;9.172;2024-03-07T04:46:21;4.90;99.90
758;DHT22;363;48.764;9.172;2024-03-07T04:48:46;4.80;99.90
758;DHT22;363;48.764;9.172;2024-03-07T04:51:12;4.60;99.90
758;DHT22;363;48.764;9.172;2024-03-07T04:53:40;5.00;99.90
758;DHT22;363;48.764;9.172;2024-03-07T04:56:07;4.90;99.90
758;DHT22;363;48.764;9.172;2024-03-07T04:58:35;5.00;99.90
758;DHT22;363;48.764;9.172;2024-03-07T05:01:01;4.80;99.90
758;DHT22;363;48.764;9.172;2024-03-07T05:03:27;4.90;99.90
758;DHT22;363;48.764;9.172;2024-03-07T05:08:19;4.90;99.90
758;DHT22;363;48.764;9.172;2024-03-07T05:10:44;4.70;99.90
758;DHT22;363;48.764;9.172;2024-03-07T05:13:10;4.60;99.90
758;DHT22;363;48.764;9.172;2024-03-07T05:15:36;5.10;99.90
758;DHT22;363;48.764;9.172;2024-03-07T05:18:01;5.10;99.90
758;DHT22;363;48.764;9.172;2024-03-07T05:20:27;4.60;99.90
758;DHT22;363;48.764;9.172;2024-03-07T05:22:53;4.50;99.90
758;DHT22;363;48.764;9.172;2024-03-07T05:25:20;4.90;99.90
758;DHT22;363;48.764;9.172;2024-03-07T05:27:47;4.40;99.90
758;DHT22;363;48.764;9.172;2024-03-07T05:30:16;4.90;99.90
758;DHT22;363;48.764;9.172;2024-03-07T05:32:42;4.80;99.90
758;DHT22;363;48.764;9.172;2024-03-07T05:35:08;4.70;99.90
758;DHT22;363;48.764;9.172;2024-03-07T05:37:34;4.70;99.90
758;DHT22;363;48.764;9.172;2024-03-07T05:40:00;4.70;99.90
758;DHT22;363;48.764;9.172;2024-03-07T05:42:26;4.60;99.90
758;DHT22;363;48.764;9.172;2024-03-07T05:44:52;4.60;99.90
758;DHT22;363;48.764;9.172;2024-03-07T05:47:19;4.40;99.90
758;DHT22;363;48.764;9.172;2024-03-07T05:49:45;5.10;99.90
758;DHT22;363;48.764;9.172;2024-03-07T05:52:10;4.40;99.90
758;DHT22;363;48.764;9.172;2024-03-07T05:54:36;4.50;99.90
758;DHT22;363;48.764;9.172;2024-03-07T05:57:02;4.40;99.90
758;DHT22;363;48.764;9.172;2024-03-07T05:59:27;4.50;99.90
758;DHT22;363;48.764;9.172;2024-03-07T06:01:57;4.40;99.90
758;DHT22;363;48.764;9.172;2024-03-07T06:04:22;4.20;99.90
758;DHT22;363;48.764;9.172;2024-03-07T06:06:48;4.90;99.90
758;DHT22;363;48.764;9.172;2024-03-07T06:09:14;4.50;99.90
758;DHT22;363;48.764;9.172;2024-03-07T06:11:40;4.80;99.90
758;DHT22;363;48.764;9.172;2024-03-07T06:14:10;4.70;99.90
758;DHT22;363;48.764;9.172;2024-03-07T06:16:39;4.60;99.90
758;DHT22;363;48.764;9.172;2024-03-07T06:19:06;4.30;99.90
758;DHT22;363;48.764;9.172;2024-03-07T06:21:39;4.50;99.90
758;DHT22;363;48.764;9.172;2024-03-07T06:24:06;4.50;99.90
758;DHT22;363;48.764;9.172;2024-03-07T06:26:35;4.70;99.90
758;DHT22;363;48.764;9.172;2024-03-07T06:29:06;4.40;99.90
758;DHT22;363;48.764;9.172;2024-03-07T06:31:33;4.30;99.90
758;DHT22;363;48.764;9.172;2024-03-07T06:34:00;4.40;99.90
758;DHT22;363;48.764;9.172;2024-03-07T06:36:25;4.50;99.90
758;DHT22;363;48.764;9.172;2024-03-07T06:38:52;4.50;99.90
758;DHT22;363;48.764;9.172;2024-03-07T06:41:18;4.60;99.90
758;DHT22;363;48.764;9.172;2024-03-07T06:43:44;4.50;99.90
758;DHT22;363;48.764;9.172;2024-03-07T06:46:12;4.80;99.90
758;DHT22;363;48.764;9.172;2024-03-07T06:48:39;4.60;99.90
758;DHT22;363;48.764;9.172;2024-03-07T06:51:08;4.70;99.90
758;DHT22;363;48.764;9.172;2024-03-07T06:53:33;5.20;99.90
758;DHT22;363;48.764;9.172;2024-03-07T06:56:00;4.90;99.90
758;DHT22;363;48.764;9.172;2024-03-07T06:58:26;5.30;99.90
758;DHT22;363;48.764;9.172;2024-03-07T07:00:52;4.90;99.90
758;DHT22;363;48.764;9.172;2024-03-07T07:03:20;5.00;99.90
758;DHT22;363;48.764;9.172;2024-03-07T07:05:46;5.20;99.90
758;DHT22;363;48.764;9.172;2024-03-07T07:08:11;5.30;99.90
758;DHT22;363;48.764;9.172;2024-03-07T07:10:41;5.30;99.90
758;DHT22;363;48.764;9.172;2024-03-07T07:13:11;5.10;99.90
758;DHT22;363;48.764;9.172;2024-03-07T07:15:36;5.50;99.90
758;DHT22;363;48.764;9.172;2024-03-07T07:18:03;5.50;99.90
758;DHT22;363;48.764;9.172;2024-03-07T07:20:29;5.50;99.90
758;DHT22;363;48.764;9.172;2024-03-07T07:22:55;5.60;99.90
758;DHT22;363;48.764;9.172;2024-03-07T07:25:22;5.90;99.90
758;DHT22;363;48.764;9.172;2024-03-07T07:27:50;5.90;99.90
758;DHT22;363;48.764;9.172;2024-03-07T07:30:18;6.30;99.90
758;DHT22;363;48.764;9.172;2024-03-07T07:32:45;6.70;99.90
758;DHT22;363;48.764;9.172;2024-03-07T07:35:11;7.70;99.90
758;DHT22;363;48.764;9.172;2024-03-07T07:37:41;7.50;99.90
758;DHT22;363;48.764;9.172;2024-03-07T07:40:09;8.20;99.90
758;DHT22;363;48.764;9.172;2024-03-07T07:42:38;8.30;99.90
758;DHT22;363;48.764;9.172;2024-03-07T07:45:10;9.40;99.90
758;DHT22;363;48.764;9.172;2024-03-07T07:47:40;9.20;99.90
758;DHT22;363;48.764;9.172;2024-03-07T07:50:12;9.20;99.90
758;DHT22;363;48.764;9.172;2024-03-07T07:52:56;9.00;99.60
758;DHT22;363;48.764;9.172;2024-03-07T07:55:27;8.10;99.90
758;DHT22;363;48.764;9.172;2024-03-07T08:00:21;8.70;99.90
758;DHT22;363;48.764;9.172;2024-03-07T08:02:59;8.70;99.90
758;DHT22;363;48.764;9.172;2024-03-07T08:05:27;9.00;99.90
758;DHT22;363;48.764;9.172;2024-03-07T08:07:55;8.40;99.80
758;DHT22;363;48.764;9.172;2024-03-07T08:10:23;8.90;99.90
758;DHT22;363;48.764;9.172;2024-03-07T08:12:49;8.60;99.90
758;DHT22;363;48.764;9.172;2024-03-07T08:15:15;8.10;99.90
758;DHT22;363;48.764;9.172;2024-03-07T08:17:45;8.30;99.90
758;DHT22;363;48.764;9.172;2024-03-07T08:20:13;8.40;99.90
758;DHT22;363;48.764;9.172;2024-03-07T08:22:39;8.20;99.90
758;DHT22;363;48.764;9.172;2024-03-07T08:25:14;8.10;99.90
758;DHT22;363;48.764;9.172;2024-03-07T08:27:42;8.00;99.90
758;DHT22;363;48.764;9.172;2024-03-07T08:30:11;8.50;99.90
758;DHT22;363;48.764;9.172;2024-03-07T08:32:40;8.30;99.90
758;DHT22;363;48.764;9.172;2024-03-07T08:35:07;7.90;99.20
758;DHT22;363;48.764;9.172;2024-03-07T08:37:48;8.70;99.90
758;DHT22;363;48.764;9.172;2024-03-07T08:40:21;8.10;99.90
758;DHT22;363;48.764;9.172;2024-03-07T08:42:51;8.10;99.90
758;DHT22;363;48.764;9.172;2024-03-07T08:45:18;8.20;99.30
758;DHT22;363;48.764;9.172;2024-03-07T08:47:45;8.40;99.90
758;DHT22;363;48.764;9.172;2024-03-07T08:50:12;8.80;99.90
758;DHT22;363;48.764;9.172;2024-03-07T08:52:39;8.30;99.90
758;DHT22;363;48.764;9.172;2024-03-07T08:55:06;8.00;99.90
758;DHT22;363;48.764;9.172;2024-03-07T08:57:35;8.30;99.90
758;DHT22;363;48.764;9.172;2024-03-07T09:00:02;8.30;99.90
758;DHT22;363;48.764;9.172;2024-03-07T09:02:34;9.00;99.90
758;DHT22;363;48.764;9.172;2024-03-07T09:05:00;7.80;99.90
758;DHT22;363;48.764;9.172;2024-03-07T09:07:26;7.90;99.90
758;DHT22;363;48.764;9.172;2024-03-07T09:09:51;8.30;99.90
758;DHT22;363;48.764;9.172;2024-03-07T09:12:17;7.60;99.90
758;DHT22;363;48.764;9.172;2024-03-07T09:14:43;7.70;99.90
758;DHT22;363;48.764;9.172;2024-03-07T09:17:09;7.90;99.90
758;DHT22;363;48.764;9.172;2024-03-07T09:19:35;7.90;99.90
758;DHT22;363;48.764;9.172;2024-03-07T09:22:00;8.30;99.90
758;DHT22;363;48.764;9.172;2024-03-07T09:24:26;8.30;99.90
758;DHT22;363;48.764;9.172;2024-03-07T09:26:52;8.50;99.90
758;DHT22;363;48.764;9.172;2024-03-07T09:29:19;8.00;99.90
758;DHT22;363;48.764;9.172;2024-03-07T09:31:45;7.90;99.90
758;DHT22;363;48.764;9.172;2024-03-07T09:34:13;8.60;99.90
758;DHT22;363;48.764;9.172;2024-03-07T09:36:40;8.20;99.90
758;DHT22;363;48.764;9.172;2024-03-07T09:39:09;8.60;99.90
758;DHT22;363;48.764;9.172;2024-03-07T09:41:34;8.90;99.90
758;DHT22;363;48.764;9.172;2024-03-07T09:44:00;8.20;99.90
758;DHT22;363;48.764;9.172;2024-03-07T09:46:26;9.20;99.90
758;DHT22;363;48.764;9.172;2024-03-07T09:48:52;9.30;99.90
758;DHT22;363;48.764;9.172;2024-03-07T09:51:20;9.10;99.80
758;DHT22;363;48.764;9.172;2024-03-07T09:53:51;9.20;99.90
758;DHT22;363;48.764;9.172;2024-03-07T09:56:20;9.10;99.60
758;DHT22;363;48.764;9.172;2024-03-07T09:58:49;9.30;98.80
758;DHT22;363;48.764;9.172;2024-03-07T10:01:15;9.40;99.20
758;DHT22;363;48.764;9.172;2024-03-07T10:03:45;9.80;99.20
758;DHT22;363;48.764;9.172;2024-03-07T10:06:11;9.50;99.00
758;DHT22;363;48.764;9.172;2024-03-07T10:08:39;9.50;99.20
758;DHT22;363;48.764;9.172;2024-03-07T10:11:06;9.20;99.10
758;DHT22;363;48.764;9.172;2024-03-07T10:13:33;9.30;99.60
758;DHT22;363;48.764;9.172;2024-03-07T10:16:01;10.10;99.10
758;DHT22;363;48.764;9.172;2024-03-07T10:18:27;10.20;98.00
758;DHT22;363;48.764;9.172;2024-03-07T10:20:56;10.70;97.30
758;DHT22;363;48.764;9.172;2024-03-07T10:23:22;10.00;97.00
758;DHT22;363;48.764;9.172;2024-03-07T10:25:48;10.40;97.10
758;DHT22;363;48.764;9.172;2024-03-07T10:28:19;9.90;97.00
758;DHT22;363;48.764;9.172;2024-03-07T10:30:46;9.90;96.70
758;DHT22;363;48.764;9.172;2024-03-07T10:33:13;10.00;96.30
758;DHT22;363;48.764;9.172;2024-03-07T10:35:39;10.00;96.10
758;DHT22;363;48.764;9.172;2024-03-07T10:38:04;10.30;96.30
758;DHT22;363;48.764;9.172;2024-03-07T10:40:32;10.10;95.90
758;DHT22;363;48.764;9.172;2024-03-07T10:42:59;10.10;96.00
758;DHT22;363;48.764;9.172;2024-03-07T10:45:33;9.90;95.70
758;DHT22;363;48.764;9.172;2024-03-07T10:48:03;10.40;95.80
758;DHT22;363;48.764;9.172;2024-03-07T10:50:51;10.40;95.60
758;DHT22;363;48.764;9.172;2024-03-07T10:53:29;10.10;95.70
758;DHT22;363;48.764;9.172;2024-03-07T10:56:29;10.10;95.60
758;DHT22;363;48.764;9.172;2024-03-07T10:59:18;10.00;96.40
758;DHT22;363;48.764;9.172;2024-03-07T11:02:15;10.30;96.40
758;DHT22;363;48.764;9.172;2024-03-07T11:04:36;10.10;96.10
758;DHT22;363;48.764;9.172;2024-03-07T11:07:02;10.80;96.60
758;DHT22;363;48.764;9.172;2024-03-07T11:09:28;10.30;96.00
758;DHT22;363;48.764;9.172;2024-03-07T11:11:59;11.10;96.10
758;DHT22;363;48.764;9.172;2024-03-07T11:14:27;10.80;96.40
758;DHT22;363;48.764;9.172;2024-03-07T11:16:53;10.30;95.40
758;DHT22;363;48.764;9.172;2024-03-07T11:19:24;10.10;96.10
758;DHT22;363;48.764;9.172;2024-03-07T11:21:53;10.50;96.70
758;DHT22;363;48.764;9.172;2024-03-07T11:24:24;10.40;96.50
758;DHT22;363;48.764;9.172;2024-03-07T11:26:52;10.40;96.20
758;DHT22;363;48.764;9.172;2024-03-07T11:29:41;10.60;96.80
758;DHT22;363;48.764;9.172;2024-03-07T11:32:10;10.40;96.50
758;DHT22;363;48.764;9.172;2024-03-07T11:34:39;10.50;96.80
758;DHT22;363;48.764;9.172;2024-03-07T11:37:19;10.30;96.70
758;DHT22;363;48.764;9.172;2024-03-07T11:39:48;10.60;97.20
758;DHT22;363;48.764;9.172;2024-03-07T11:42:22;10.40;95.60
758;DHT22;363;48.764;9.172;2024-03-07T11:44:51;11.00;95.80
758;DHT22;363;48.764;9.172;2024-03-07T11:47:17;11.10;95.50
758;DHT22;363;48.764;9.172;2024-03-07T11:49:44;11.10;95.90
758;DHT22;363;48.764;9.172;2024-03-07T11:52:14;11.00;95.40
758;DHT22;363;48.764;9.172;2024-03-07T11:54:39;11.40;95.40
758;DHT22;363;48.764;9.172;2024-03-07T11:57:11;11.40;95.60
758;DHT22;363;48.764;9.172;2024-03-07T11:59:42;11.40;95.60
758;DHT22;363;48.764;9.172;2024-03-07T12:02:13;11.00;95.50
758;DHT22;363;48.764;9.172;2024-03-07T12:04:41;11.30;96.50
758;DHT22;363;48.764;9.172;2024-03-07T12:07:07;10.80;96.00
758;DHT22;363;48.764;9.172;2024-03-07T12:09:37;10.50;96.30
758;DHT22;363;48.764;9.172;2024-03-07T12:12:04;10.10;96.80
758;DHT22;363;48.764;9.172;2024-03-07T12:14:30;10.50;97.60
758;DHT22;363;48.764;9.172;2024-03-07T12:16:57;10.20;98.20
758;DHT22;363;48.764;9.172;2024-03-07T12:19:24;10.20;98.30
758;DHT22;363;48.764;9.172;2024-03-07T12:21:49;9.90;98.80
758;DHT22;363;48.764;9.172;2024-03-07T12:24:15;9.80;99.20
758;DHT22;363;48.764;9.172;2024-03-07T12:26:41;9.80;99.10
758;DHT22;363;48.764;9.172;2024-03-07T12:29:14;10.10;98.40
758;DHT22;363;48.764;9.172;2024-03-07T12:31:42;9.80;99.10
758;DHT22;363;48.764;9.172;2024-03-07T12:34:10;9.70;99.30
758;DHT22;363;48.764;9.172;2024-03-07T12:36:37;9.90;99.10
758;DHT22;363;48.764;9.172;2024-03-07T12:39:33;10.00;98.50
758;DHT22;363;48.764;9.172;2024-03-07T12:42:12;9.70;98.90
758;DHT22;363;48.764;9.172;2024-03-07T12:44:43;9.70;99.20
758;DHT22;363;48.764;9.172;2024-03-07T12:47:20;9.60;99.20
758;DHT22;363;48.764;9.172;2024-03-07T12:49:46;9.60;99.40
758;DHT22;363;48.764;9.172;2024-03-07T12:52:12;9.50;99.70
758;DHT22;363;48.764;9.172;2024-03-07T12:54:41;9.80;99.30
758;DHT22;363;48.764;9.172;2024-03-07T12:57:10;9.80;99.00
758;DHT22;363;48.764;9.172;2024-03-07T12:59:38;9.20;99.00
758;DHT22;363;48.764;9.172;2024-03-07T13:02:06;9.60;99.20
758;DHT22;363;48.764;9.172;2024-03-07T13:04:35;9.80;99.50
758;DHT22;363;48.764;9.172;2024-03-07T13:07:03;9.40;99.10
758;DHT22;363;48.764;9.172;2024-03-07T13:09:30;9.50;99.40
758;DHT22;363;48.764;9.172;2024-03-07T13:11:57;9.60;99.70
758;DHT22;363;48.764;9.172;2024-03-07T13:14:28;10.00;98.90
758;DHT22;363;48.764;9.172;2024-03-07T13:16:58;9.70;98.90
758;DHT22;363;48.764;9.172;2024-03-07T13:19:26;9.80;98.80
758;DHT22;363;48.764;9.172;2024-03-07T13:21:51;10.20;98.30
758;DHT22;363;48.764;9.172;2024-03-07T13:24:19;9.90;98.80
758;DHT22;363;48.764;9.172;2024-03-07T13:26:45;9.90;98.90
758;DHT22;363;48.764;9.172;2024-03-07T13:29:14;10.20;98.00
758;DHT22;363;48.764;9.172;2024-03-07T13:31:41;9.90;98.00
758;DHT22;363;48.764;9.172;2024-03-07T13:34:08;10.20;97.70
758;DHT22;363;48.764;9.172;2024-03-07T13:36:39;10.10;97.90
758;DHT22;363;48.764;9.172;2024-03-07T13:39:06;9.80;98.30
758;DHT22;363;48.764;9.172;2024-03-07T13:41:36;9.80;98.40
758;DHT22;363;48.764;9.172;2024-03-07T13:44:03;9.70;98.30
758;DHT22;363;48.764;9.172;2024-03-07T13:46:29;9.80;98.60
758;DHT22;363;48.764;9.172;2024-03-07T13:48:56;9.70;98.50
758;DHT22;363;48.764;9.172;2024-03-07T13:51:32;10.00;98.20
758;DHT22;363;48.764;9.172;2024-03-07T13:54:00;9.80;98.70
758;DHT22;363;48.764;9.172;2024-03-07T14:02:37;10.00;98.30
758;DHT22;363;48.764;9.172;2024-03-07T14:11:00;9.20;99.60
758;DHT22;363;48.764;9.172;2024-03-07T14:14:03;9.50;99.40
758;DHT22;363;48.764;9.172;2024-03-07T14:28:49;10.50;97.80
758;DHT22;363;48.764;9.172;2024-03-07T14:31:17;9.80;98.30
758;DHT22;363;48.764;9.172;2024-03-07T14:36:44;10.40;98.20
758;DHT22;363;48.764;9.172;2024-03-07T14:39:12;9.90;98.00
758;DHT22;363;48.764;9.172;2024-03-07T14:44:18;10.20;97.00
758;DHT22;363;48.764;9.172;2024-03-07T14:46:46;10.50;96.30
758;DHT22;363;48.764;9.172;2024-03-07T14:49:15;11.20;96.90
758;DHT22;363;48.764;9.172;2024-03-07T14:51:42;10.20;96.50
758;DHT22;363;48.764;9.172;2024-03-07T14:54:08;10.00;96.70
758;DHT22;363;48.764;9.172;2024-03-07T14:56:35;10.00;97.40
758;DHT22;363;48.764;9.172;2024-03-07T14:59:01;10.20;96.70
758;DHT22;363;48.764;9.172;2024-03-07T15:01:29;10.60;96.40
758;DHT22;363;48.764;9.172;2024-03-07T15:03:57;10.60;95.90
758;DHT22;363;48.764;9.172;2024-03-07T15:06:23;10.10;95.70
758;DHT22;363;48.764;9.172;2024-03-07T15:08:49;10.30;95.80
758;DHT22;363;48.764;9.172;2024-03-07T15:11:31;10.50;95.60
758;DHT22;363;48.764;9.172;2024-03-07T15:13:59;10.40;95.50
758;DHT22;363;48.764;9.172;2024-03-07T15:16:30;10.60;95.60
758;DHT22;363;48.764;9.172;2024-03-07T15:18:59;10.30;95.20
758;DHT22;363;48.764;9.172;2024-03-07T15:21:25;10.60;95.80
758;DHT22;363;48.764;9.172;2024-03-07T15:23:52;10.70;95.70
758;DHT22;363;48.764;9.172;2024-03-07T15:26:19;9.60;96.40
758;DHT22;363;48.764;9.172;2024-03-07T15:28:49;10.20;96.00
758;DHT22;363;48.764;9.172;2024-03-07T15:31:16;10.20;95.90
758;DHT22;363;48.764;9.172;2024-03-07T15:33:46;10.40;95.70
758;DHT22;363;48.764;9.172;2024-03-07T15:36:13;10.30;95.80
758;DHT22;363;48.764;9.172;2024-03-07T15:38:38;10.70;95.90
758;DHT22;363;48.764;9.172;2024-03-07T15:41:05;10.60;95.90
758;DHT22;363;48.764;9.172;2024-03-07T15:43:35;10.60;95.70
758;DHT22;363;48.764;9.172;2024-03-07T15:46:00;9.50;96.10
758;DHT22;363;48.764;9.172;2024-03-07T15:48:26;9.70;96.70
758;DHT22;363;48.764;9.172;2024-03-07T15:50:52;10.20;96.50
758;DHT22;363;48.764;9.172;2024-03-07T15:53:18;10.10;97.20
758;DHT22;363;48.764;9.172;2024-03-07T15:55:44;10.40;96.50
758;DHT22;363;48.764;9.172;2024-03-07T15:58:10;9.90;96.70
758;DHT22;363;48.764;9.172;2024-03-07T16:00:36;9.90;96.50
758;DHT22;363;48.764;9.172;2024-03-07T16:03:04;10.10;96.00
758;DHT22;363;48.764;9.172;2024-03-07T16:05:31;9.90;96.20
758;DHT22;363;48.764;9.172;2024-03-07T16:07:58;9.90;96.10
758;DHT22;363;48.764;9.172;2024-03-07T16:10:27;9.90;96.60
758;DHT22;363;48.764;9.172;2024-03-07T16:12:54;10.00;95.80
758;DHT22;363;48.764;9.172;2024-03-07T16:15:22;9.30;95.90
758;DHT22;363;48.764;9.172;2024-03-07T16:17:54;9.90;96.40
758;DHT22;363;48.764;9.172;2024-03-07T16:20:26;9.80;96.50
758;DHT22;363;48.764;9.172;2024-03-07T16:22:52;9.60;96.50
758;DHT22;363;48.764;9.172;2024-03-07T16:25:20;9.70;96.40
758;DHT22;363;48.764;9.172;2024-03-07T16:27:47;9.10;96.50
758;DHT22;363;48.764;9.172;2024-03-07T16:30:17;9.60;96.80
758;DHT22;363;48.764;9.172;2024-03-07T16:32:45;9.50;96.60
758;DHT22;363;48.764;9.172;2024-03-07T16:35:19;9.30;96.20
758;DHT22;363;48.764;9.172;2024-03-07T16:37:49;9.70;97.00
758;DHT22;363;48.764;9.172;2024-03-07T16:40:18;9.80;97.00
758;DHT22;363;48.764;9.172;2024-03-07T16:42:46;9.30;96.50
758;DHT22;363;48.764;9.172;2024-03-07T16:45:17;9.20;96.60
758;DHT22;363;48.764;9.172;2024-03-07T16:48:03;10.00;96.90
758;DHT22;363;48.764;9.172;2024-03-07T16:50:34;9.40;96.60
758;DHT22;363;48.764;9.172;2024-03-07T16:53:02;9.80;96.70
758;DHT22;363;48.764;9.172;2024-03-07T16:55:32;9.30;96.10
758;DHT22;363;48.764;9.172;2024-03-07T16:57:57;9.50;96.60
758;DHT22;363;48.764;9.172;2024-03-07T17:00:23;9.50;96.10
758;DHT22;363;48.764;9.172;2024-03-07T17:02:58;9.40;96.50
758;DHT22;363;48.764;9.172;2024-03-07T17:05:29;9.40;96.50
758;DHT22;363;48.764;9.172;2024-03-07T17:07:55;9.40;96.80
758;DHT22;363;48.764;9.172;2024-03-07T17:10:21;9.30;96.90
758;DHT22;363;48.764;9.172;2024-03-07T17:12:50;9.30;96.50
758;DHT22;363;48.764;9.172;2024-03-07T17:15:20;9.30;96.50
758;DHT22;363;48.764;9.172;2024-03-07T17:17:48;9.30;97.00
758;DHT22;363;48.764;9.172;2024-03-07T17:20:16;9.30;97.00
758;DHT22;363;48.764;9.172;2024-03-07T17:22:43;9.60;97.20
758;DHT22;363;48.764;9.172;2024-03-07T17:25:09;9.30;96.80
758;DHT22;363;48.764;9.172;2024-03-07T17:27:36;9.20;97.30